Time;durP1;ratioP1;P1;durP2;ratioP2;P2;SDS_P1;SDS_P2;PMS_P1;PMS_P2;Temp;Humidity;BMP_temperature;BMP_pressure;BME280_temperature;BME280_humidity;BME280_pressure;Samples;Min_cycle;Max_cycle;Signal;HPM_P1;HPM_P2
2021/06/13 00:02:06;;;;;;;12.32;10.07;;;435.90;2355.20;;;;;;5037016;28;20444;-82
2021/06/13 00:04:35;;;;;;;15.98;11.55;;;435.90;2355.20;;;;;;5037132;28;20449;-82
2021/06/13 00:07:00;;;;;;;16.38;11.68;;;435.90;2355.20;;;;;;5036833;28;20021;-81
2021/06/13 00:09:26;;;;;;;17.40;11.15;;;435.90;2355.20;;;;;;5036972;28;20028;-81
2021/06/13 00:11:52;;;;;;;14.82;11.80;;;436.00;2355.20;;;;;;5036846;28;20021;-81
2021/06/13 00:14:18;;;;;;;13.82;10.90;;;436.10;2355.20;;;;;;5036659;28;20032;-81
2021/06/13 00:16:44;;;;;;;16.77;12.23;;;436.10;2355.20;;;;;;5036830;28;20368;-81
2021/06/13 00:19:10;;;;;;;14.85;12.05;;;436.00;2355.20;;;;;;5036484;28;20134;-81
2021/06/13 00:21:36;;;;;;;15.52;12.27;;;435.90;2355.20;;;;;;5036002;28;20032;-81
2021/06/13 00:24:03;;;;;;;13.30;12.00;;;435.50;2355.20;;;;;;5036721;28;20036;-81
2021/06/13 00:26:29;;;;;;;16.00;12.52;;;410.50;2355.20;;;;;;5036239;28;20074;-82
2021/06/13 00:28:54;;;;;;;13.52;11.10;;;435.40;2355.20;;;;;;5036040;28;20028;-81
2021/06/13 00:31:20;;;;;;;18.00;13.27;;;435.60;2355.20;;;;;;5054189;28;20020;-81
2021/06/13 00:33:46;;;;;;;16.73;12.48;;;435.30;2355.20;;;;;;5054231;28;20071;-79
2021/06/13 00:36:12;;;;;;;15.90;11.20;;;435.50;2355.20;;;;;;5054297;28;20017;-80
2021/06/13 00:38:38;;;;;;;15.38;10.77;;;435.40;2355.20;;;;;;5036535;28;20460;-81
2021/06/13 00:41:06;;;;;;;12.35;11.00;;;435.40;2355.20;;;;;;5036173;28;20147;-81
2021/06/13 00:43:32;;;;;;;13.38;10.30;;;435.50;2355.20;;;;;;5036319;28;20025;-81
2021/06/13 00:45:58;;;;;;;13.85;10.82;;;435.60;2355.20;;;;;;5036466;28;20456;-81
2021/06/13 00:48:24;;;;;;;13.27;11.07;;;435.60;2355.20;;;;;;5036142;28;20467;-81
2021/06/13 00:50:52;;;;;;;16.20;11.40;;;435.60;2355.20;;;;;;5036287;28;20020;-81
2021/06/13 00:53:20;;;;;;;17.33;11.30;;;435.50;2355.20;;;;;;5036203;28;20033;-82
2021/06/13 00:55:46;;;;;;;14.23;11.85;;;435.50;2355.20;;;;;;5036124;28;20021;-80
2021/06/13 00:58:12;;;;;;;12.52;10.55;;;435.50;2355.20;;;;;;5036388;28;20059;-81
2021/06/13 01:00:39;;;;;;;14.90;12.07;;;435.60;2355.20;;;;;;5036299;28;20052;-81
2021/06/13 01:03:09;;;;;;;14.98;11.07;;;435.60;2355.20;;;;;;5035576;28;20068;-81
2021/06/13 01:05:34;;;;;;;13.25;10.13;;;435.80;2355.20;;;;;;5036168;28;20021;-80
2021/06/13 01:08:47;;;;;;;14.13;10.63;;;435.80;2355.20;;;;;;5035999;28;20167;-80
2021/06/13 01:11:38;;;;;;;17.40;11.20;;;435.80;2355.20;;;;;;5026661;28;20071;-80
2021/06/13 01:14:31;;;;;;;12.20;10.63;;;435.60;2355.20;;;;;;5054076;28;20094;-80
2021/06/13 01:17:12;;;;;;;19.92;11.90;;;435.60;2355.20;;;;;;5053490;28;20352;-80
2021/06/13 01:19:50;;;;;;;14.32;10.75;;;435.70;2355.20;;;;;;5035764;28;20029;-81
2021/06/13 01:22:32;;;;;;;18.08;12.48;;;435.80;2355.20;;;;;;5035920;28;20120;-80
2021/06/13 01:25:06;;;;;;;20.70;12.73;;;435.70;2355.20;;;;;;5035654;28;20060;-81
2021/06/13 01:28:02;;;;;;;12.93;11.43;;;435.50;2355.20;;;;;;5035821;28;20017;-81
2021/06/13 01:30:31;;;;;;;12.85;11.13;;;435.60;2355.20;;;;;;5053149;28;20017;-80
2021/06/13 01:33:01;;;;;;;19.60;10.43;;;435.60;2355.20;;;;;;5039571;28;20027;-80
2021/06/13 01:35:27;;;;;;;16.77;10.57;;;435.80;2355.20;;;;;;5039802;28;20478;-80
2021/06/13 01:37:56;;;;;;;18.45;11.20;;;435.80;2355.20;;;;;;5039560;28;20028;-81
2021/06/13 01:40:27;;;;;;;12.80;11.48;;;435.90;2355.20;;;;;;5040642;28;20071;-80
2021/06/13 01:42:57;;;;;;;18.95;11.27;;;436.00;2355.20;;;;;;5059808;28;20060;-80
2021/06/13 01:45:28;;;;;;;13.05;11.73;;;435.70;2355.20;;;;;;5043313;28;20024;-81
2021/06/13 01:47:54;;;;;;;15.70;11.35;;;435.60;2355.20;;;;;;5061365;28;20536;-80
2021/06/13 01:50:23;;;;;;;12.43;11.18;;;435.40;2355.20;;;;;;5043156;28;20049;-80
2021/06/13 01:52:51;;;;;;;17.48;13.10;;;435.40;2355.20;;;;;;5043142;28;20021;-80
2021/06/13 01:55:19;;;;;;;14.40;11.82;;;435.30;2355.20;;;;;;5043867;28;20334;-80
2021/06/13 01:57:47;;;;;;;13.80;11.55;;;435.50;2355.20;;;;;;5060917;28;20020;-79
2021/06/13 02:00:15;;;;;;;13.80;11.27;;;435.60;2355.20;;;;;;5061253;28;20100;-81
2021/06/13 02:02:47;;;;;;;18.42;12.60;;;435.60;2355.20;;;;;;5059660;28;20175;-80
2021/06/13 02:05:14;;;;;;;13.95;11.82;;;435.70;2355.20;;;;;;5039156;28;20040;-81
2021/06/13 02:07:42;;;;;;;15.43;11.50;;;435.60;2355.20;;;;;;5039347;28;20052;-81
2021/06/13 02:10:11;;;;;;;15.05;11.75;;;435.50;2355.20;;;;;;5039300;28;20029;-80
2021/06/13 02:12:42;;;;;;;17.02;11.38;;;435.60;2355.20;;;;;;5038927;28;20403;-81
2021/06/13 02:15:09;;;;;;;12.65;10.95;;;435.60;2355.20;;;;;;5039406;28;20094;-80
2021/06/13 02:17:40;;;;;;;13.80;11.18;;;435.60;2355.20;;;;;;5039216;28;20017;-80
2021/06/13 02:20:09;;;;;;;17.77;11.98;;;435.60;2355.20;;;;;;5039034;28;20021;-80
2021/06/13 02:22:36;;;;;;;13.00;10.05;;;435.60;2355.20;;;;;;5038862;28;20329;-80
2021/06/13 02:25:03;;;;;;;13.13;10.68;;;435.40;2355.20;;;;;;5039070;28;20029;-80
2021/06/13 02:27:30;;;;;;;13.73;10.77;;;435.50;2355.20;;;;;;5038690;28;20025;-81
2021/06/13 02:29:58;;;;;;;12.95;11.65;;;435.60;2355.20;;;;;;5038968;28;20078;-80
2021/06/13 02:32:25;;;;;;;15.82;11.50;;;435.60;2355.20;;;;;;5056560;28;20415;-80
2021/06/13 02:34:51;;;;;;;15.57;11.02;;;435.50;2355.20;;;;;;5038176;28;20025;-81
2021/06/13 02:37:18;;;;;;;13.18;11.30;;;435.60;2355.20;;;;;;5038809;28;20017;-81
2021/06/13 02:39:45;;;;;;;13.32;10.52;;;435.60;2355.20;;;;;;5038784;28;20048;-81
2021/06/13 02:42:11;;;;;;;12.90;10.55;;;435.80;2355.20;;;;;;5038474;28;20467;-81
2021/06/13 02:44:37;;;;;;;14.18;10.52;;;435.80;2355.20;;;;;;5055804;28;20043;-81
2021/06/13 02:47:04;;;;;;;12.90;10.73;;;435.80;2355.20;;;;;;5056282;28;20023;-80
2021/06/13 02:49:30;;;;;;;14.13;10.00;;;435.80;2355.20;;;;;;5038544;28;20021;-81
2021/06/13 02:52:23;;;;;;;11.85;9.75;;;435.80;2355.20;;;;;;5038527;28;20525;-80
2021/06/13 02:54:51;;;;;;;15.70;10.52;;;435.80;2355.20;;;;;;5038328;28;20032;-81
2021/06/13 02:57:52;;;;;;;13.48;10.52;;;435.80;2355.20;;;;;;5038070;28;20028;-81
2021/06/13 03:00:19;;;;;;;14.13;10.52;;;435.60;2355.20;;;;;;5030905;28;20143;-80
2021/06/13 03:02:48;;;;;;;11.90;10.23;;;435.50;2355.20;;;;;;5034671;28;20045;-80
2021/06/13 03:05:16;;;;;;;13.30;11.05;;;435.30;2355.20;;;;;;5034497;28;20033;-80
2021/06/13 03:07:44;;;;;;;15.18;10.77;;;435.30;2355.20;;;;;;5034892;28;20018;-80
2021/06/13 03:10:11;;;;;;;12.75;9.82;;;435.80;2355.20;;;;;;5034770;28;20365;-80
2021/06/13 03:12:39;;;;;;;12.10;10.88;;;435.20;2355.20;;;;;;5034892;28;20076;-80
2021/06/13 03:15:06;;;;;;;14.60;10.00;;;435.20;2355.20;;;;;;5034432;28;20388;-80
2021/06/13 03:17:35;;;;;;;14.88;10.63;;;435.20;2355.20;;;;;;5034615;28;20028;-80
2021/06/13 03:20:01;;;;;;;13.23;11.73;;;435.20;2355.20;;;;;;5034631;28;20024;-80
2021/06/13 03:22:27;;;;;;;14.13;11.80;;;410.30;2355.20;;;;;;5033960;28;20108;-80
2021/06/13 03:24:55;;;;;;;16.95;11.60;;;410.20;2355.20;;;;;;5034476;28;20447;-80
2021/06/13 03:27:21;;;;;;;16.02;11.05;;;410.20;2355.20;;;;;;5034495;28;20068;-80
2021/06/13 03:29:50;;;;;;;12.27;10.13;;;410.20;2355.20;;;;;;5033990;28;20018;-81
2021/06/13 03:32:17;;;;;;;14.85;10.68;;;409.80;2355.20;;;;;;5034392;28;20025;-81
2021/06/13 03:34:44;;;;;;;12.85;10.25;;;410.50;2355.20;;;;;;5034376;28;20365;-81
2021/06/13 03:37:12;;;;;;;14.15;10.80;;;410.50;2355.20;;;;;;5034170;28;20055;-81
2021/06/13 03:39:41;;;;;;;14.80;11.27;;;410.50;2355.20;;;;;;5034397;28;20017;-81
2021/06/13 03:42:08;;;;;;;12.40;10.15;;;410.30;2355.20;;;;;;5034301;28;20021;-80
2021/06/13 03:44:34;;;;;;;13.32;10.38;;;410.50;2355.20;;;;;;5033831;28;20530;-81
2021/06/13 03:47:01;;;;;;;15.63;11.00;;;410.50;2355.20;;;;;;5034101;28;20022;-81
2021/06/13 03:49:27;;;;;;;14.38;10.93;;;435.20;2355.20;;;;;;5034117;28;20065;-81
2021/06/13 03:51:53;;;;;;;13.95;11.30;;;410.50;2355.20;;;;;;5033717;28;20031;-80
2021/06/13 03:54:20;;;;;;;21.98;12.10;;;410.30;2355.20;;;;;;5033714;28;20021;-81
2021/06/13 03:56:52;;;;;;;12.18;10.13;;;410.40;2355.20;;;;;;5033582;28;20071;-80
2021/06/13 03:59:23;;;;;;;13.15;10.55;;;435.20;2355.20;;;;;;5034132;28;20021;-80
2021/06/13 04:01:49;;;;;;;12.57;11.23;;;435.20;2355.20;;;;;;5033585;28;20148;-80
2021/06/13 04:04:18;;;;;;;16.95;11.15;;;435.20;2355.20;;;;;;5033475;28;20025;-80
2021/06/13 04:06:47;;;;;;;12.23;10.30;;;435.20;2355.20;;;;;;5033930;28;20021;-81
2021/06/13 04:09:16;;;;;;;12.60;11.02;;;435.30;2355.20;;;;;;5035023;28;20018;-80
2021/06/13 04:11:44;;;;;;;20.80;10.77;;;435.30;2355.20;;;;;;5033464;28;20029;-80
2021/06/13 04:14:12;;;;;;;11.90;10.18;;;435.30;2355.20;;;;;;5033634;28;20025;-80
2021/06/13 04:16:40;;;;;;;11.55;10.40;;;435.50;2355.20;;;;;;5034576;28;20045;-81
2021/06/13 04:19:09;;;;;;;12.18;10.85;;;435.50;2355.20;;;;;;5032997;28;20071;-81
2021/06/13 04:21:38;;;;;;;13.38;10.75;;;435.30;2355.20;;;;;;5033578;28;20044;-81
2021/06/13 04:24:05;;;;;;;17.30;12.30;;;435.50;2355.20;;;;;;5033752;28;20461;-82
2021/06/13 04:26:33;;;;;;;15.23;12.95;;;435.50;2355.20;;;;;;5033086;28;20441;-81
2021/06/13 04:28:59;;;;;;;15.50;12.88;;;435.30;2355.20;;;;;;5033381;28;20021;-81
2021/06/13 04:31:28;;;;;;;20.00;13.10;;;435.20;2355.20;;;;;;5033275;28;20017;-81
2021/06/13 04:33:54;;;;;;;15.35;12.45;;;410.40;2355.20;;;;;;5033023;28;20460;-81
2021/06/13 04:36:22;;;;;;;18.23;14.50;;;410.50;2355.20;;;;;;5034808;28;20035;-81
2021/06/13 04:38:48;;;;;;;15.68;13.70;;;435.20;2355.20;;;;;;5032950;28;20022;-80
2021/06/13 04:41:14;;;;;;;13.48;11.80;;;435.20;2355.20;;;;;;5033180;28;20025;-81
2021/06/13 04:43:41;;;;;;;16.65;10.00;;;435.30;2355.20;;;;;;5033055;28;20120;-81
2021/06/13 04:46:10;;;;;;;19.92;10.55;;;435.50;2355.20;;;;;;5032685;28;20373;-81
2021/06/13 04:48:38;;;;;;;17.23;11.10;;;435.40;2355.20;;;;;;5033079;28;20022;-81
2021/06/13 04:51:07;;;;;;;14.02;10.52;;;435.30;2355.20;;;;;;5033019;28;20041;-81
2021/06/13 04:53:53;;;;;;;15.88;10.98;;;435.50;2355.20;;;;;;5033631;28;20048;-80
2021/06/13 04:56:27;;;;;;;17.48;12.48;;;435.60;2355.20;;;;;;5034205;28;20029;-80
2021/06/13 04:58:53;;;;;;;15.07;12.35;;;435.50;2355.20;;;;;;5032787;28;20071;-80
2021/06/13 05:01:19;;;;;;;14.98;12.15;;;435.50;2355.20;;;;;;5032250;28;20124;-80
2021/06/13 05:03:45;;;;;;;17.08;14.18;;;435.50;2355.20;;;;;;5032770;28;20168;-80
2021/06/13 05:06:11;;;;;;;19.92;14.27;;;435.60;2355.20;;;;;;5032140;28;20022;-80
2021/06/13 05:08:41;;;;;;;15.73;13.70;;;435.60;2355.20;;;;;;5032427;28;20477;-80
2021/06/13 05:11:07;;;;;;;17.50;13.20;;;435.60;2355.20;;;;;;5032451;28;20029;-80
2021/06/13 05:13:33;;;;;;;17.48;14.55;;;435.60;2355.20;;;;;;5033576;28;20021;-80
2021/06/13 05:15:59;;;;;;;21.67;13.68;;;435.50;2355.20;;;;;;5033591;28;20456;-80
2021/06/13 05:18:25;;;;;;;22.55;15.32;;;435.50;2355.20;;;;;;5032542;28;20033;-81
2021/06/13 05:20:54;;;;;;;21.85;15.27;;;435.60;2355.20;;;;;;5032304;28;20032;-81
2021/06/13 05:23:21;;;;;;;21.42;13.63;;;435.60;2355.20;;;;;;5032378;28;20033;-81
2021/06/13 05:25:48;;;;;;;21.05;13.77;;;435.60;2355.20;;;;;;5032581;28;20044;-81
2021/06/13 05:28:14;;;;;;;16.50;12.85;;;435.60;2355.20;;;;;;5032401;28;20032;-81
2021/06/13 05:30:40;;;;;;;14.95;11.88;;;435.60;2355.20;;;;;;5032471;28;20026;-80
2021/06/13 05:33:07;;;;;;;17.10;12.10;;;435.80;2355.20;;;;;;5032509;28;20083;-81
2021/06/13 05:35:34;;;;;;;14.40;11.73;;;435.80;2355.20;;;;;;5032195;28;20053;-81
2021/06/13 05:38:00;;;;;;;15.05;11.50;;;435.80;2355.20;;;;;;5032781;28;20360;-82
2021/06/13 05:40:28;;;;;;;13.35;11.40;;;435.80;2355.20;;;;;;5031992;28;20109;-82
2021/06/13 05:42:54;;;;;;;13.57;11.25;;;435.80;2355.20;;;;;;5031934;28;20029;-82
2021/06/13 05:45:23;;;;;;;14.90;11.48;;;435.90;2355.20;;;;;;5031698;28;20083;-81
2021/06/13 05:47:49;;;;;;;15.00;12.40;;;435.90;2355.20;;;;;;5033198;28;20022;-82
2021/06/13 05:50:16;;;;;;;14.75;11.63;;;435.90;2355.20;;;;;;5032309;28;20021;-82
2021/06/13 05:52:42;;;;;;;20.63;12.10;;;436.00;2355.20;;;;;;5032348;28;20175;-85
2021/06/13 05:55:10;;;;;;;16.45;11.98;;;436.00;2355.20;;;;;;5031631;28;20025;-81
2021/06/13 05:57:36;;;;;;;17.52;12.15;;;436.10;2355.20;;;;;;5031520;28;20469;-82
2021/06/13 06:00:08;;;;;;;14.95;10.38;;;461.00;2380.80;;;;;;5031227;28;20026;-81
2021/06/13 06:02:34;;;;;;;15.60;11.13;;;460.80;2380.80;;;;;;5032217;28;20117;-81
2021/06/13 06:05:00;;;;;;;16.95;13.43;;;460.80;2380.80;;;;;;5032068;28;20540;-79
2021/06/13 06:07:26;;;;;;;18.88;14.13;;;436.10;2355.20;;;;;;5031471;28;20106;-78
2021/06/13 06:09:52;;;;;;;14.15;11.93;;;436.10;2355.20;;;;;;5032748;28;20033;-78
2021/06/13 06:12:18;;;;;;;12.65;11.43;;;436.10;2355.20;;;;;;5031482;28;20245;-79
2021/06/13 06:14:46;;;;;;;17.30;13.00;;;436.00;2355.20;;;;;;5031349;28;20030;-81
2021/06/13 06:17:12;;;;;;;20.58;14.23;;;435.60;2355.20;;;;;;5032964;28;20067;-78
2021/06/13 06:19:39;;;;;;;15.63;13.30;;;435.80;2355.20;;;;;;5035583;28;20032;-78
2021/06/13 06:22:05;;;;;;;15.70;13.15;;;435.70;2355.20;;;;;;5035100;28;20053;-78
2021/06/13 06:24:32;;;;;;;18.33;14.80;;;435.70;2355.20;;;;;;5035640;28;20096;-78
2021/06/13 06:26:58;;;;;;;15.52;13.50;;;435.70;2355.20;;;;;;5035731;28;20484;-77
2021/06/13 06:29:24;;;;;;;16.42;14.60;;;435.70;2355.20;;;;;;5035140;28;20445;-80
2021/06/13 06:31:50;;;;;;;15.20;13.60;;;435.80;2355.20;;;;;;5037409;28;20108;-81
2021/06/13 06:34:17;;;;;;;20.67;15.73;;;435.80;2355.20;;;;;;5044040;28;20028;-80
2021/06/13 06:36:44;;;;;;;21.13;15.82;;;436.00;2355.20;;;;;;5041243;28;20070;-80
2021/06/13 06:39:11;;;;;;;23.23;16.08;;;435.60;2355.20;;;;;;5052582;28;20025;-80
2021/06/13 06:41:37;;;;;;;38.50;26.98;;;435.80;2355.20;;;;;;5054893;28;20059;-78
2021/06/13 06:44:04;;;;;;;25.52;17.90;;;435.80;2355.20;;;;;;5056066;28;20490;-78
2021/06/13 06:46:30;;;;;;;24.13;21.48;;;435.60;2355.20;;;;;;5055175;28;20048;-78
2021/06/13 06:48:57;;;;;;;25.65;19.48;;;435.80;2355.20;;;;;;5054816;28;20166;-79
2021/06/13 06:51:23;;;;;;;18.95;15.38;;;435.80;2355.20;;;;;;5055032;28;20021;-78
2021/06/13 06:53:49;;;;;;;22.33;15.55;;;435.70;2355.20;;;;;;5054973;28;20082;-79
2021/06/13 06:56:15;;;;;;;18.95;15.52;;;435.70;2355.20;;;;;;5055990;28;20025;-76
2021/06/13 06:58:41;;;;;;;19.63;16.88;;;435.80;2355.20;;;;;;5054849;28;20021;-76
2021/06/13 07:01:07;;;;;;;16.88;14.52;;;435.90;2355.20;;;;;;5057468;28;20032;-74
2021/06/13 07:03:32;;;;;;;16.25;14.02;;;435.90;2355.20;;;;;;5075683;28;20029;-76
2021/06/13 07:05:58;;;;;;;17.80;14.75;;;435.90;2355.20;;;;;;5057980;28;20111;-76
2021/06/13 07:08:24;;;;;;;23.80;14.43;;;435.80;2355.20;;;;;;5057933;28;20024;-76
2021/06/13 07:10:50;;;;;;;17.33;14.65;;;435.80;2355.20;;;;;;5057701;28;20029;-78
2021/06/13 07:13:16;;;;;;;18.25;14.20;;;435.90;2355.20;;;;;;5057948;28;20021;-79
2021/06/13 07:15:42;;;;;;;16.50;14.75;;;436.00;2355.20;;;;;;5075466;28;20043;-76
2021/06/13 07:18:08;;;;;;;17.08;14.38;;;436.00;2355.20;;;;;;5057592;28;20054;-78
2021/06/13 07:20:35;;;;;;;17.25;15.45;;;436.10;2355.20;;;;;;5075765;28;20023;-76
2021/06/13 07:23:01;;;;;;;19.58;17.50;;;436.10;2355.20;;;;;;5075357;28;20017;-80
2021/06/13 07:25:28;;;;;;;25.20;21.50;;;461.20;2380.80;;;;;;5048653;28;20104;-79
2021/06/13 07:27:54;;;;;;;38.60;30.92;;;436.10;2355.20;;;;;;5057709;28;20020;-80
2021/06/13 07:30:21;;;;;;;33.63;24.77;;;436.10;2355.20;;;;;;5056943;28;20482;-83
2021/06/13 07:32:47;;;;;;;28.10;24.60;;;436.10;2355.20;;;;;;5057692;28;20017;-81
2021/06/13 07:35:13;;;;;;;20.92;18.75;;;436.10;2355.20;;;;;;5057767;28;20028;-81
2021/06/13 07:37:40;;;;;;;22.63;19.15;;;436.00;2355.20;;;;;;5057405;28;20025;-81
2021/06/13 07:40:07;;;;;;;41.08;31.33;;;436.10;2355.20;;;;;;5057737;28;20333;-81
2021/06/13 07:42:33;;;;;;;54.50;37.35;;;436.10;2355.20;;;;;;5057648;28;20048;-82
2021/06/13 07:44:59;;;;;;;35.88;29.27;;;460.80;2380.80;;;;;;5056989;28;20460;-84
2021/06/13 07:47:25;;;;;;;33.63;23.98;;;436.10;2355.20;;;;;;5055958;28;20025;-80
2021/06/13 07:49:51;;;;;;;29.20;23.13;;;436.10;2355.20;;;;;;5056521;28;20025;-82
2021/06/13 07:52:17;;;;;;;57.22;38.92;;;460.80;2380.80;;;;;;5074708;28;20462;-81
2021/06/13 07:54:43;;;;;;;46.05;33.53;;;460.80;2380.80;;;;;;5075166;28;20085;-82
2021/06/13 07:57:09;;;;;;;40.42;36.42;;;460.80;2380.80;;;;;;5057344;28;20029;-81
2021/06/13 07:59:36;;;;;;;30.48;25.63;;;460.80;2380.80;;;;;;5056974;28;20063;-80
2021/06/13 08:02:04;;;;;;;37.22;26.60;;;460.90;2380.80;;;;;;5075021;28;20044;-82
2021/06/13 08:04:35;;;;;;;47.67;34.10;;;460.90;2380.80;;;;;;5057161;28;20059;-80
2021/06/13 08:07:01;;;;;;;22.02;18.75;;;460.90;2380.80;;;;;;5056805;28;20021;-81
2021/06/13 08:09:26;;;;;;;25.88;20.00;;;461.00;2380.80;;;;;;5057295;28;20020;-82
2021/06/13 08:11:52;;;;;;;31.75;24.35;;;461.00;2380.80;;;;;;5057164;28;20024;-82
2021/06/13 08:14:19;;;;;;;18.73;15.57;;;461.00;2380.80;;;;;;5056965;28;20060;-81
2021/06/13 08:16:44;;;;;;;15.55;14.05;;;461.50;2380.80;;;;;;5056992;28;20039;-80
2021/06/13 08:19:10;;;;;;;17.77;14.35;;;461.10;2380.80;;;;;;5056908;28;20452;-85
2021/06/13 08:21:36;;;;;;;21.30;18.33;;;461.10;2380.80;;;;;;5056877;28;20068;-82
2021/06/13 08:24:04;;;;;;;18.88;15.68;;;461.20;2380.80;;;;;;5074739;28;20036;-83
2021/06/13 08:26:30;;;;;;;24.27;19.38;;;461.20;2380.80;;;;;;5056453;28;20063;-82
2021/06/13 08:28:59;;;;;;;20.38;16.60;;;461.20;2380.80;;;;;;5056763;28;20078;-84
2021/06/13 08:31:25;;;;;;;12.68;11.35;;;461.30;2380.80;;;;;;5055264;28;20020;-81
2021/06/13 08:33:51;;;;;;;15.40;13.77;;;461.30;2380.80;;;;;;5055129;28;20032;-81
2021/06/13 08:36:18;;;;;;;14.05;12.65;;;461.30;2380.80;;;;;;5056545;28;20478;-83
2021/06/13 08:38:44;;;;;;;14.30;12.90;;;461.40;2380.80;;;;;;5056289;28;20107;-84
2021/06/13 08:41:11;;;;;;;17.48;14.07;;;461.40;2380.80;;;;;;5055498;28;20020;-81
2021/06/13 08:43:37;;;;;;;14.63;12.93;;;461.40;2380.80;;;;;;5056648;28;20119;-82
2021/06/13 08:46:04;;;;;;;12.38;11.23;;;461.40;2380.80;;;;;;5074278;28;20070;-80
2021/06/13 08:48:31;;;;;;;14.57;13.18;;;461.40;2380.80;;;;;;5056096;28;20072;-79
2021/06/13 08:50:59;;;;;;;19.55;16.42;;;461.50;2380.80;;;;;;5052871;28;20017;-78
2021/06/13 08:53:26;;;;;;;24.83;19.52;;;461.40;2380.80;;;;;;5065038;28;20016;-78
2021/06/13 08:55:53;;;;;;;18.48;16.27;;;461.40;2380.80;;;;;;5055709;28;20024;-78
2021/06/13 08:58:19;;;;;;;18.52;16.73;;;461.40;2380.80;;;;;;5056053;28;20070;-77
2021/06/13 09:00:47;;;;;;;16.80;15.02;;;461.50;2380.80;;;;;;5073563;28;20046;-77
2021/06/13 09:03:13;;;;;;;16.40;14.82;;;461.40;2380.80;;;;;;5055192;28;20136;-82
2021/06/13 09:05:39;;;;;;;14.88;13.48;;;461.50;2380.80;;;;;;5048560;28;20031;-81
2021/06/13 09:08:08;;;;;;;18.33;16.42;;;461.50;2380.80;;;;;;5063560;28;20078;-82
2021/06/13 09:10:35;;;;;;;22.10;14.60;;;461.50;2380.80;;;;;;5061794;28;20020;-80
2021/06/13 09:13:10;;;;;;;23.35;18.40;;;461.50;2380.80;;;;;;5051021;28;20044;-78
2021/06/13 09:15:45;;;;;;;17.40;15.60;;;461.60;2380.80;;;;;;5055805;28;20060;-79
2021/06/13 09:18:31;;;;;;;26.77;21.63;;;461.60;2380.80;;;;;;5056212;28;20040;-82
2021/06/13 09:20:59;;;;;;;19.25;17.25;;;461.70;2380.80;;;;;;5045426;28;20051;-85
2021/06/13 09:23:27;;;;;;;15.65;14.05;;;461.70;2380.80;;;;;;5055870;28;20036;-79
2021/06/13 09:26:19;;;;;;;14.27;12.88;;;461.70;2380.80;;;;;;5056006;28;20475;-82
2021/06/13 09:28:50;;;;;;;16.80;14.43;;;461.70;2380.80;;;;;;5056359;28;20115;-79
2021/06/13 09:31:23;;;;;;;14.95;13.55;;;486.40;2380.80;;;;;;5072277;28;20364;-82
2021/06/13 09:33:50;;;;;;;14.73;13.13;;;486.40;2380.80;;;;;;5055626;28;20036;-81
2021/06/13 09:36:19;;;;;;;16.08;14.48;;;486.40;2380.80;;;;;;5055509;28;20021;-83
2021/06/13 09:38:46;;;;;;;12.55;11.35;;;486.50;2380.80;;;;;;5073554;28;20012;-80
2021/06/13 09:41:18;;;;;;;11.73;10.15;;;486.50;2380.80;;;;;;5073801;28;20024;-79
2021/06/13 09:43:51;;;;;;;12.70;11.43;;;486.50;2380.80;;;;;;5055684;28;20028;-80
2021/06/13 09:46:18;;;;;;;10.15;9.13;;;486.50;2380.80;;;;;;5055785;28;20412;-79
2021/06/13 09:48:53;;;;;;;10.93;9.75;;;486.50;2380.80;;;;;;5055630;28;20017;-80
2021/06/13 09:51:25;;;;;;;10.15;9.15;;;486.50;2380.80;;;;;;5055545;28;20021;-78
2021/06/13 09:53:55;;;;;;;12.15;8.80;;;486.50;2380.80;;;;;;5059423;28;20024;-81
2021/06/13 09:56:28;;;;;;;8.88;8.00;;;486.50;2380.80;;;;;;5059852;28;20583;-78
2021/06/13 09:59:05;;;;;;;10.57;8.10;;;486.60;2380.80;;;;;;5059531;28;20337;-80
2021/06/13 10:01:38;;;;;;;9.57;8.23;;;486.70;2380.80;;;;;;5059246;28;20070;-80
2021/06/13 10:04:06;;;;;;;8.20;7.38;;;486.90;2380.80;;;;;;5059388;28;20039;-82
2021/06/13 10:06:37;;;;;;;10.18;8.63;;;486.80;2380.80;;;;;;5058925;28;20060;-79
2021/06/13 10:09:08;;;;;;;10.18;8.77;;;486.90;2380.80;;;;;;5059613;28;20055;-81
2021/06/13 10:11:37;;;;;;;10.43;9.38;;;486.80;2380.80;;;;;;5059111;28;20113;-83
2021/06/13 10:14:14;;;;;;;8.82;8.02;;;486.80;2380.80;;;;;;5059221;28;20089;-81
2021/06/13 10:16:44;;;;;;;9.45;8.55;;;486.80;2380.80;;;;;;5077335;28;20483;-79
2021/06/13 10:19:11;;;;;;;10.23;7.60;;;486.90;2380.80;;;;;;5059071;28;20020;-79
2021/06/13 10:21:40;;;;;;;9.05;7.25;;;486.90;2380.80;;;;;;5059302;28;20017;-80
2021/06/13 10:24:10;;;;;;;8.85;7.35;;;486.90;2380.80;;;;;;5059137;28;20020;-80
2021/06/13 10:26:43;;;;;;;8.73;6.43;;;486.90;2380.80;;;;;;5076799;28;20507;-79
2021/06/13 10:29:09;;;;;;;8.73;6.70;;;486.90;2380.80;;;;;;5059107;28;20059;-79
2021/06/13 10:31:36;;;;;;;16.10;8.27;;;486.90;2380.80;;;;;;5058952;28;20364;-85
2021/06/13 10:34:02;;;;;;;11.07;8.68;;;486.90;2380.80;;;;;;5058652;28;20027;-78
2021/06/13 10:36:32;;;;;;;9.73;8.77;;;487.00;2380.80;;;;;;5058701;28;20185;-81
2021/06/13 10:38:58;;;;;;;9.57;8.57;;;487.00;2380.80;;;;;;5076837;28;20024;-80
2021/06/13 10:41:25;;;;;;;10.13;9.15;;;487.00;2380.80;;;;;;5058539;28;20017;-81
2021/06/13 10:43:59;;;;;;;9.80;8.80;;;487.00;2380.80;;;;;;5058697;28;20123;-82
2021/06/13 10:46:30;;;;;;;10.70;9.45;;;487.00;2380.80;;;;;;5058551;28;20028;-80
2021/06/13 10:48:59;;;;;;;12.77;10.70;;;487.00;2380.80;;;;;;5058892;28;20052;-80
2021/06/13 10:51:32;;;;;;;10.48;8.75;;;487.00;2380.80;;;;;;5058731;28;20031;-83
2021/06/13 10:54:21;;;;;;;11.25;10.05;;;487.00;2380.80;;;;;;5076486;28;20047;-80
2021/06/13 10:57:15;;;;;;;11.63;9.38;;;487.00;2380.80;;;;;;5058576;28;20025;-79
2021/06/13 10:59:43;;;;;;;9.32;8.35;;;487.00;2380.80;;;;;;5057845;28;20028;-80
2021/06/13 11:02:23;;;;;;;9.20;7.20;;;487.00;2380.80;;;;;;5057907;28;20044;-80
2021/06/13 11:05:04;;;;;;;9.15;7.35;;;487.00;2380.80;;;;;;5057473;28;20345;-82
2021/06/13 11:10:12;;;;;;;8.30;6.70;;;487.00;2380.80;;;;;;5076712;28;20032;-79
2021/06/13 11:12:49;;;;;;;8.32;5.20;;;487.00;2380.80;;;;;;5058462;28;20025;-79
2021/06/13 11:17:56;;;;;;;11.05;5.68;;;487.20;2380.80;;;;;;5076099;28;20064;-83
2021/06/13 11:20:33;;;;;;;6.35;5.30;;;487.30;2380.80;;;;;;5058317;28;20028;-79
2021/06/13 11:23:01;;;;;;;6.47;5.35;;;512.00;2380.80;;;;;;5057978;28;20047;-79
2021/06/13 11:25:30;;;;;;;7.05;4.80;;;512.20;2380.80;;;;;;5058019;28;20122;-85
2021/06/13 11:28:27;;;;;;;6.53;5.22;;;512.30;2380.80;;;;;;5058127;28;20081;-81
2021/06/13 11:31:20;;;;;;;6.25;3.90;;;512.70;2380.80;;;;;;5075870;28;20081;-80
2021/06/13 11:34:07;;;;;;;6.55;4.15;;;538.00;2406.40;;;;;;5054949;28;20487;-81
2021/06/13 11:36:39;;;;;;;5.38;3.67;;;538.50;2406.40;;;;;;5057533;28;20028;-81
2021/06/13 11:39:05;;;;;;;5.72;2.97;;;538.40;2406.40;;;;;;5057951;28;20024;-80
2021/06/13 11:41:42;;;;;;;4.60;3.05;;;538.30;2406.40;;;;;;5057735;28;20019;-81
2021/06/13 11:44:21;;;;;;;6.65;4.07;;;538.40;2406.40;;;;;;5057774;28;20090;-81
2021/06/13 11:46:50;;;;;;;5.70;3.28;;;538.30;2406.40;;;;;;5057896;28;20368;-83
2021/06/13 11:49:21;;;;;;;5.65;2.70;;;538.10;2406.40;;;;;;5057677;28;20021;-84
2021/06/13 11:52:01;;;;;;;4.13;2.63;;;537.90;2406.40;;;;;;5075817;28;20398;-80
2021/06/13 11:54:32;;;;;;;6.80;3.58;;;537.80;2406.40;;;;;;5057613;28;20028;-81
2021/06/13 11:57:06;;;;;;;6.25;3.20;;;537.90;2406.40;;;;;;5057185;28;20115;-81
2021/06/13 11:59:33;;;;;;;5.88;3.30;;;537.90;2406.40;;;;;;5057498;28;20056;-82
2021/06/13 12:02:09;;;;;;;7.10;4.63;;;537.80;2406.40;;;;;;5057167;28;20051;-85
2021/06/13 12:04:35;;;;;;;6.95;4.82;;;538.10;2406.40;;;;;;5057168;28;20449;-83
2021/06/13 12:07:03;;;;;;;5.82;3.80;;;538.40;2406.40;;;;;;5057357;28;20081;-82
2021/06/13 12:09:33;;;;;;;5.85;4.10;;;563.60;2432.00;;;;;;5057159;28;20020;-81
2021/06/13 12:12:03;;;;;;;5.90;3.60;;;588.90;2432.00;;;;;;5056940;28;20044;-84
2021/06/13 12:14:34;;;;;;;5.07;3.72;;;589.10;2432.00;;;;;;5057348;28;20025;-83
2021/06/13 12:17:14;;;;;;;5.45;3.50;;;589.50;2432.00;;;;;;5057058;28;20371;-82